createdAt,value
2023-04-02T00:00:09.986Z,67.84
2023-04-02T00:02:59.209Z,69.80
2023-04-02T00:05:35.675Z,70.17
2023-04-02T00:08:18.854Z,70.81
2023-04-02T00:10:54.025Z,70.90
2023-04-02T00:13:41.781Z,71.15
2023-04-02T00:16:14.208Z,72.39
2023-04-02T00:18:50.376Z,73.23
2023-04-02T00:21:37.711Z,74.35
2023-04-02T00:24:23.135Z,74.06
2023-04-02T00:26:53.814Z,75.02
2023-04-02T00:29:22.586Z,74.41
2023-04-02T00:31:53.790Z,73.80
2023-04-02T00:34:40.541Z,74.59
2023-04-02T00:37:24.501Z,74.86
2023-04-02T00:40:02.967Z,74.74
2023-04-02T00:42:32.424Z,74.90
2023-04-02T00:45:02.984Z,74.88
2023-04-02T00:47:38.166Z,75.17
2023-04-02T00:50:19.031Z,76.00
2023-04-02T00:52:51.502Z,76.92
2023-04-02T00:55:27.948Z,77.75
2023-04-02T00:57:58.637Z,77.34
2023-04-02T01:00:37.408Z,77.50
2023-04-02T01:03:17.633Z,77.86
2023-04-02T01:05:51.007Z,77.03
2023-04-02T01:08:42.685Z,77.02
2023-04-02T01:11:34.899Z,76.71
2023-04-02T01:14:35.448Z,76.66
2023-04-02T01:17:43.456Z,77.55
2023-04-02T01:20:33.851Z,77.12
2023-04-02T01:23:08.408Z,77.22
2023-04-02T01:26:03.203Z,77.78
2023-04-02T01:28:53.214Z,78.68
2023-04-02T01:31:22.593Z,77.84
2023-04-02T01:33:51.291Z,79.57
2023-04-02T01:37:04.324Z,78.09
2023-04-02T01:40:03.896Z,76.60
2023-04-02T01:42:53.321Z,77.20
2023-04-02T01:45:24.042Z,78.85
2023-04-02T01:47:53.527Z,78.88
2023-04-02T01:50:53.001Z,78.90
2023-04-02T01:53:23.866Z,79.70
2023-04-02T01:55:55.532Z,79.69
2023-04-02T01:58:30.046Z,79.05
2023-04-02T02:01:15.743Z,79.70
2023-04-02T02:03:46.405Z,80.75
2023-04-02T02:06:18.084Z,82.97
2023-04-02T02:08:58.717Z,86.22
2023-04-02T02:11:29.519Z,87.12
2023-04-02T02:14:19.436Z,90.27
2023-04-02T02:16:48.519Z,92.28
2023-04-02T02:19:38.923Z,94.68
2023-04-02T02:22:29.125Z,95.86
2023-04-02T02:25:01.082Z,97.31
2023-04-02T02:27:29.160Z,98.93
2023-04-02T02:30:23.246Z,100.00
2023-04-02T02:33:04.734Z,100.00
2023-04-02T02:35:50.551Z,100.00
2023-04-02T02:38:49.544Z,100.00
2023-04-02T02:41:38.604Z,100.00
2023-04-02T02:44:29.725Z,100.00
2023-04-02T02:47:05.647Z,100.00
2023-04-02T02:49:40.287Z,100.00
2023-04-02T02:52:22.287Z,100.00
2023-04-02T02:55:01.980Z,100.00
2023-04-02T02:57:47.601Z,100.00
2023-04-02T03:00:20.242Z,100.00
2023-04-02T03:02:50.493Z,100.00
2023-04-02T03:05:24.441Z,100.00
2023-04-02T03:07:57.716Z,100.00
2023-04-02T03:10:39.794Z,100.00
2023-04-02T03:13:24.674Z,100.00
2023-04-02T03:16:03.465Z,100.00
2023-04-02T03:18:45.439Z,100.00
2023-04-02T03:21:26.565Z,100.00
2023-04-02T03:24:23.640Z,100.00
2023-04-02T03:27:28.958Z,100.00
2023-04-02T03:30:31.917Z,100.00
2023-04-02T03:33:11.877Z,100.00
2023-04-02T03:36:24.426Z,100.00
2023-04-02T03:39:45.318Z,100.00
2023-04-02T03:42:28.678Z,100.00
2023-04-02T03:45:06.519Z,100.00
2023-04-02T03:47:46.757Z,100.00
2023-04-02T03:50:38.278Z,100.00
2023-04-02T03:53:07.437Z,100.00
2023-04-02T03:55:41.840Z,100.00
2023-04-02T03:58:44.872Z,100.00
2023-04-02T04:01:34.926Z,100.00
2023-04-02T04:04:19.862Z,100.00
2023-04-02T04:06:52.820Z,100.00
2023-04-02T04:09:27.859Z,100.00
2023-04-02T04:12:35.227Z,100.00
2023-04-02T04:15:37.117Z,100.00
2023-04-02T04:18:35.228Z,100.00
2023-04-02T04:21:30.706Z,100.00
2023-04-02T04:24:16.659Z,100.00
2023-04-02T04:26:53.955Z,100.00
2023-04-02T04:29:46.016Z,100.00
2023-04-02T04:32:39.432Z,100.00
2023-04-02T04:35:29.708Z,100.00
2023-04-02T04:38:08.458Z,100.00
2023-04-02T04:40:43.064Z,100.00
2023-04-02T04:43:22.339Z,100.00
2023-04-02T04:46:09.350Z,100.00
2023-04-02T04:48:47.135Z,100.00
2023-04-02T04:51:26.545Z,100.00
2023-04-02T04:53:57.031Z,100.00
2023-04-02T04:56:32.212Z,100.00
2023-04-02T04:59:25.418Z,100.00
2023-04-02T05:02:09.346Z,100.00
2023-04-02T05:04:42.870Z,100.00
2023-04-02T05:07:37.221Z,100.00
2023-04-02T05:10:28.000Z,100.00
2023-04-02T05:13:11.589Z,100.00
2023-04-02T05:15:47.649Z,100.00
2023-04-02T05:18:40.038Z,100.00
2023-04-02T05:21:34.639Z,100.00
2023-04-02T05:24:26.647Z,100.00
2023-04-02T05:27:02.192Z,100.00
2023-04-02T05:29:37.735Z,100.00
2023-04-02T05:32:14.844Z,100.00
2023-04-02T05:34:49.889Z,100.00
2023-04-02T05:37:22.420Z,100.00
2023-04-02T05:39:57.462Z,100.00
2023-04-02T05:42:31.696Z,100.00
2023-04-02T19:09:41.891Z,75.69
2023-04-02T19:12:17.418Z,74.11
2023-04-02T19:14:50.254Z,73.51
2023-04-02T19:17:34.122Z,72.02
2023-04-02T19:20:08.401Z,71.89
2023-04-02T19:22:47.267Z,70.79
2023-04-02T19:25:34.731Z,70.11
2023-04-02T19:28:15.149Z,69.67
2023-04-02T19:31:25.131Z,69.75
2023-04-02T19:34:00.230Z,69.33
2023-04-02T19:36:34.668Z,69.12
2023-04-02T19:39:17.867Z,71.78
2023-04-02T19:41:54.604Z,72.63
2023-04-02T19:44:22.971Z,74.13
2023-04-02T19:46:51.989Z,76.58
2023-04-02T19:49:41.153Z,77.59
2023-04-02T19:52:24.068Z,77.61
2023-04-02T19:54:56.135Z,78.05
2023-04-02T19:57:24.425Z,78.47
2023-04-02T19:59:52.826Z,77.49
2023-04-02T20:02:21.300Z,76.58
2023-04-02T20:04:49.605Z,75.91
2023-04-02T20:07:17.880Z,74.66
2023-04-02T20:09:46.520Z,74.75
2023-04-02T20:12:14.859Z,75.22
2023-04-02T20:14:43.251Z,75.26
2023-04-02T20:17:11.450Z,74.73
2023-04-02T20:19:39.603Z,75.04
2023-04-02T20:22:07.864Z,75.44
2023-04-02T20:24:36.228Z,75.33
2023-04-02T20:27:04.594Z,76.09
2023-04-02T20:29:59.797Z,77.58
2023-04-02T20:32:31.480Z,78.98
2023-04-02T20:35:00.034Z,77.64
2023-04-02T20:37:28.604Z,77.59
2023-04-02T20:39:59.722Z,78.08
2023-04-02T20:42:28.502Z,80.33
2023-04-02T20:44:57.084Z,82.94
2023-04-02T20:47:25.483Z,84.51
2023-04-02T20:49:53.850Z,85.72
2023-04-02T20:52:22.566Z,83.51
2023-04-02T20:54:51.460Z,76.67
2023-04-02T20:57:22.363Z,76.74
2023-04-02T20:59:50.766Z,77.58
2023-04-02T21:02:19.102Z,77.60
2023-04-02T21:04:47.508Z,77.75
2023-04-02T21:07:16.081Z,78.01
2023-04-02T21:09:44.201Z,78.40
2023-04-02T21:12:12.649Z,76.84
2023-04-02T21:14:41.083Z,76.78
2023-04-02T21:17:09.278Z,77.42
2023-04-02T21:19:37.449Z,77.20
2023-04-02T21:22:05.723Z,77.04
2023-04-02T21:24:33.917Z,77.11
2023-04-02T21:27:02.119Z,76.95
2023-04-02T21:29:30.759Z,77.48
2023-04-02T21:32:01.543Z,77.87
2023-04-02T21:34:34.159Z,77.98
2023-04-02T21:37:02.653Z,78.91
2023-04-02T21:39:31.639Z,79.45
2023-04-02T21:41:59.937Z,79.60
2023-04-02T21:44:28.220Z,80.00
2023-04-02T21:46:57.003Z,80.36
2023-04-02T21:49:26.753Z,81.41
2023-04-02T21:51:55.028Z,82.58
2023-04-02T21:54:23.562Z,83.41
2023-04-02T21:56:53.034Z,84.27
2023-04-02T21:59:21.229Z,85.14
2023-04-02T22:01:51.391Z,87.24
2023-04-02T22:04:25.457Z,85.48
2023-04-02T22:06:54.268Z,86.15
2023-04-02T22:09:25.030Z,86.83
2023-04-02T22:11:56.440Z,86.50
2023-04-02T22:14:24.601Z,86.72
2023-04-02T22:16:52.819Z,86.18
2023-04-02T22:19:21.775Z,86.62
2023-04-02T22:21:50.419Z,87.79
2023-04-02T22:24:19.746Z,88.52
2023-04-02T22:26:48.614Z,88.48
2023-04-02T22:29:17.377Z,90.62
2023-04-02T22:31:46.811Z,90.76
2023-04-02T22:34:15.050Z,90.74
2023-04-02T22:36:43.290Z,90.99
2023-04-02T22:39:12.628Z,91.67
2023-04-02T22:41:41.429Z,90.58
2023-04-02T22:44:14.575Z,89.96
2023-04-02T22:46:42.780Z,90.53
2023-04-02T22:49:12.403Z,90.49
2023-04-02T22:51:40.453Z,92.70
2023-04-02T22:54:08.496Z,92.59
2023-04-02T22:56:37.793Z,90.97
2023-04-02T22:59:06.176Z,89.37
2023-04-02T23:01:36.481Z,89.89
2023-04-02T23:04:05.654Z,90.12
2023-04-02T23:06:34.133Z,90.41
2023-04-02T23:09:02.435Z,89.92
2023-04-02T23:11:30.712Z,90.14
2023-04-02T23:13:59.511Z,91.21
2023-04-02T23:16:29.910Z,91.52
2023-04-02T23:18:58.549Z,92.09
2023-04-02T23:21:27.857Z,92.17
2023-04-02T23:23:56.688Z,92.01
2023-04-02T23:26:31.562Z,91.99
2023-04-02T23:29:01.011Z,91.77
2023-04-02T23:31:29.401Z,92.19
2023-04-02T23:33:57.654Z,93.20
2023-04-02T23:36:25.785Z,94.40
2023-04-02T23:38:56.103Z,94.68
2023-04-02T23:41:27.226Z,95.46
2023-04-02T23:43:56.934Z,95.31
2023-04-02T23:46:26.400Z,93.16
2023-04-02T23:48:56.210Z,94.64
2023-04-02T23:51:25.048Z,94.65
2023-04-02T23:53:55.658Z,94.19
2023-04-02T23:56:25.022Z,93.54
2023-04-02T23:58:53.294Z,93.64
